Aeroporto :
LOGIN :

Iscrizione | Disclaimer

   EN    FR    IT 

 










Sommario :    VFR   VFR Marginale   IFR   IFR Intensivo   IFR Molto Intensivo
Visibilità : 
Base nubi : 
>= 8 km
>= 3000ft
5 / 8 km
1000 / 3000 ft
1500m / 5 km
500 / 1000 ft
800 / 1500m
200 / 500 ft
< 800m
< 200 ft
Simboli :   Temporali  Nebbia  Neve Forte  Precipitazioni Forti  Vento > 20 kt
SIGMETs :   Varie  Temporali  Ghiacco  Turbolenza  Onda orograficha  Ceneri Vulcaniche






- Altitudine del aeroporto : 22 ft
- Codice IATA : TUN


DTTA - Tunis Carthage

ULTIMO METAR :
  • 242330Z 17002KT CAVOK 11/03 Q1022

METARs OBSOLETI :
  • 242300Z 16003KT 130V190 CAVOK 12/03 Q1022
  • 242230Z 15003KT CAVOK 12/02 Q1022
  • 242200Z 18005KT CAVOK 13/01 Q1023
  • 242130Z 17005KT CAVOK 14/M00 Q1023
  • 242100Z 00000KT CAVOK 14/M01 Q1023

TAF TAF DTTA
Valido dal 24 a 18 ore il 25 a 18 ore UTC


241700Z 2418/2518 29008KT CAVOK
BECMG 2420/2422 23004KT
BECMG 2513/2515 05010KT



MetMap, La meteo Aeronautica in un colpo d'occhio ! - Copyright ORBIFLY Dicembre 2007 - Disclaimer

ORBIFLY MET'MAP TEAM :

Programmazione e sviluppo : Alexandra Zaïnal
Concezione : Baudouin d'Aumeries
Aiuto per la programmazione : Marc-Olivier Méhu
Supporto tecnico e logistico : Manuel Goepfert
Aiuto per la traduzione : Arnaldo La Scala

Contatto : metmap@orbifly.com




FONTI E CREDITI :

   NOAA